sensor_id;sensor_type;location;lat;lon;timestamp;P1;durP1;ratioP1;P2;durP2;ratioP2
63621;SDS011;49770;47.544;19.074;2022-07-29T04:10:47;7.80;;;6.60;;
63621;SDS011;49770;47.544;19.074;2022-07-29T04:13:50;6.65;;;6.03;;
63621;SDS011;49770;47.544;19.074;2022-07-29T04:16:52;8.05;;;6.32;;
63621;SDS011;49770;47.544;19.074;2022-07-29T04:19:55;13.35;;;6.03;;
63621;SDS011;49770;47.544;19.074;2022-07-29T04:22:58;8.02;;;6.35;;
63621;SDS011;49770;47.544;19.074;2022-07-29T04:26:01;7.43;;;6.35;;
63621;SDS011;49770;47.544;19.074;2022-07-29T04:29:04;6.65;;;5.90;;
63621;SDS011;49770;47.544;19.074;2022-07-29T04:32:06;6.57;;;5.97;;
63621;SDS011;49770;47.544;19.074;2022-07-29T04:35:09;6.30;;;5.70;;
63621;SDS011;49770;47.544;19.074;2022-07-29T04:38:12;6.72;;;5.93;;
63621;SDS011;49770;47.544;19.074;2022-07-29T04:41:18;6.95;;;6.07;;
63621;SDS011;49770;47.544;19.074;2022-07-29T04:44:37;12.18;;;5.85;;
63621;SDS011;49770;47.544;19.074;2022-07-29T04:47:41;8.73;;;5.82;;
63621;SDS011;49770;47.544;19.074;2022-07-29T04:50:43;7.37;;;6.68;;
63621;SDS011;49770;47.544;19.074;2022-07-29T04:53:46;11.85;;;6.07;;
63621;SDS011;49770;47.544;19.074;2022-07-29T04:56:49;9.27;;;5.90;;
63621;SDS011;49770;47.544;19.074;2022-07-29T04:59:52;12.13;;;5.65;;
63621;SDS011;49770;47.544;19.074;2022-07-29T05:02:54;33.47;;;7.00;;
63621;SDS011;49770;47.544;19.074;2022-07-29T05:05:57;10.40;;;6.40;;
63621;SDS011;49770;47.544;19.074;2022-07-29T05:09:02;6.75;;;5.97;;
63621;SDS011;49770;47.544;19.074;2022-07-29T05:12:05;9.63;;;5.68;;
63621;SDS011;49770;47.544;19.074;2022-07-29T05:15:09;9.38;;;5.78;;
63621;SDS011;49770;47.544;19.074;2022-07-29T05:18:12;6.50;;;5.47;;
63621;SDS011;49770;47.544;19.074;2022-07-29T05:21:15;7.60;;;5.80;;
63621;SDS011;49770;47.544;19.074;2022-07-29T05:24:17;6.30;;;5.70;;
63621;SDS011;49770;47.544;19.074;2022-07-29T05:27:21;6.60;;;5.90;;
63621;SDS011;49770;47.544;19.074;2022-07-29T05:30:24;7.65;;;5.62;;
63621;SDS011;49770;47.544;19.074;2022-07-29T05:33:26;13.43;;;5.78;;
63621;SDS011;49770;47.544;19.074;2022-07-29T05:36:38;8.18;;;5.75;;
63621;SDS011;49770;47.544;19.074;2022-07-29T05:39:40;6.15;;;5.35;;
63621;SDS011;49770;47.544;19.074;2022-07-29T05:42:50;5.82;;;5.28;;
63621;SDS011;49770;47.544;19.074;2022-07-29T05:45:53;5.62;;;5.03;;
63621;SDS011;49770;47.544;19.074;2022-07-29T05:48:56;9.35;;;5.78;;
63621;SDS011;49770;47.544;19.074;2022-07-29T05:51:58;6.03;;;5.47;;
63621;SDS011;49770;47.544;19.074;2022-07-29T05:55:01;5.40;;;5.00;;
63621;SDS011;49770;47.544;19.074;2022-07-29T05:58:06;8.07;;;5.45;;
63621;SDS011;49770;47.544;19.074;2022-07-29T06:01:09;12.10;;;6.07;;
63621;SDS011;49770;47.544;19.074;2022-07-29T06:04:12;6.55;;;5.62;;
63621;SDS011;49770;47.544;19.074;2022-07-29T06:07:15;11.23;;;5.28;;
63621;SDS011;49770;47.544;19.074;2022-07-29T06:10:18;8.55;;;5.40;;
63621;SDS011;49770;47.544;19.074;2022-07-29T06:40:29;6.43;;;5.00;;
63621;SDS011;49770;47.544;19.074;2022-07-29T06:43:50;7.65;;;5.20;;
63621;SDS011;49770;47.544;19.074;2022-07-29T06:46:58;7.35;;;5.05;;
63621;SDS011;49770;47.544;19.074;2022-07-29T06:50:26;5.62;;;4.97;;
63621;SDS011;49770;47.544;19.074;2022-07-29T07:16:14;10.48;;;5.35;;
63621;SDS011;49770;47.544;19.074;2022-07-29T08:23:51;11.80;;;5.80;;
63621;SDS011;49770;47.544;19.074;2022-07-29T08:42:10;5.90;;;4.90;;
63621;SDS011;49770;47.544;19.074;2022-07-29T08:45:14;6.47;;;5.43;;
63621;SDS011;49770;47.544;19.074;2022-07-29T08:48:18;6.15;;;5.55;;
63621;SDS011;49770;47.544;19.074;2022-07-29T08:51:23;7.03;;;5.15;;
63621;SDS011;49770;47.544;19.074;2022-07-29T08:54:27;5.40;;;5.00;;
63621;SDS011;49770;47.544;19.074;2022-07-29T08:57:33;9.27;;;5.45;;
63621;SDS011;49770;47.544;19.074;2022-07-29T09:00:41;6.90;;;5.40;;
63621;SDS011;49770;47.544;19.074;2022-07-29T09:03:46;7.93;;;4.80;;
63621;SDS011;49770;47.544;19.074;2022-07-29T09:06:52;8.10;;;5.00;;
63621;SDS011;49770;47.544;19.074;2022-07-29T09:09:59;6.68;;;4.80;;
63621;SDS011;49770;47.544;19.074;2022-07-29T09:13:03;8.70;;;5.32;;
63621;SDS011;49770;47.544;19.074;2022-07-29T09:16:06;6.30;;;5.22;;
63621;SDS011;49770;47.544;19.074;2022-07-29T09:19:21;9.13;;;5.28;;
63621;SDS011;49770;47.544;19.074;2022-07-29T09:22:44;5.50;;;5.00;;
63621;SDS011;49770;47.544;19.074;2022-07-29T09:25:51;11.23;;;4.90;;
63621;SDS011;49770;47.544;19.074;2022-07-29T09:28:54;6.53;;;4.90;;
63621;SDS011;49770;47.544;19.074;2022-07-29T09:31:56;5.28;;;4.70;;
63621;SDS011;49770;47.544;19.074;2022-07-29T09:35:16;5.37;;;4.90;;
63621;SDS011;49770;47.544;19.074;2022-07-29T09:38:22;6.20;;;4.87;;
63621;SDS011;49770;47.544;19.074;2022-07-29T09:41:25;7.80;;;4.82;;
63621;SDS011;49770;47.544;19.074;2022-07-29T09:47:51;7.20;;;4.78;;
63621;SDS011;49770;47.544;19.074;2022-07-29T09:50:54;7.95;;;5.03;;
63621;SDS011;49770;47.544;19.074;2022-07-29T09:53:57;7.20;;;4.78;;
63621;SDS011;49770;47.544;19.074;2022-07-29T09:57:00;12.77;;;5.03;;
63621;SDS011;49770;47.544;19.074;2022-07-29T10:00:04;4.65;;;4.20;;
63621;SDS011;49770;47.544;19.074;2022-07-29T10:03:13;4.97;;;4.47;;
63621;SDS011;49770;47.544;19.074;2022-07-29T10:06:18;7.05;;;4.40;;
63621;SDS011;49770;47.544;19.074;2022-07-29T10:45:49;5.70;;;3.70;;
63621;SDS011;49770;47.544;19.074;2022-07-29T10:49:12;6.32;;;4.00;;
63621;SDS011;49770;47.544;19.074;2022-07-29T10:52:17;9.57;;;4.10;;
63621;SDS011;49770;47.544;19.074;2022-07-29T10:58:33;7.47;;;4.12;;
63621;SDS011;49770;47.544;19.074;2022-07-29T11:01:36;4.15;;;3.78;;
63621;SDS011;49770;47.544;19.074;2022-07-29T11:32:24;7.95;;;4.15;;
63621;SDS011;49770;47.544;19.074;2022-07-29T11:35:31;4.10;;;3.70;;
63621;SDS011;49770;47.544;19.074;2022-07-29T11:38:41;5.18;;;4.10;;
63621;SDS011;49770;47.544;19.074;2022-07-29T11:41:44;5.32;;;3.90;;
63621;SDS011;49770;47.544;19.074;2022-07-29T11:44:57;4.22;;;3.83;;
63621;SDS011;49770;47.544;19.074;2022-07-29T11:48:41;6.22;;;3.85;;
63621;SDS011;49770;47.544;19.074;2022-07-29T11:51:50;6.85;;;3.70;;
63621;SDS011;49770;47.544;19.074;2022-07-29T11:54:56;4.18;;;3.87;;
63621;SDS011;49770;47.544;19.074;2022-07-29T11:58:11;5.87;;;4.20;;
63621;SDS011;49770;47.544;19.074;2022-07-29T12:01:16;4.50;;;4.00;;
63621;SDS011;49770;47.544;19.074;2022-07-29T12:04:19;13.45;;;4.20;;
63621;SDS011;49770;47.544;19.074;2022-07-29T12:07:32;4.82;;;4.05;;
63621;SDS011;49770;47.544;19.074;2022-07-29T12:10:37;6.57;;;3.80;;
63621;SDS011;49770;47.544;19.074;2022-07-29T12:13:40;3.90;;;3.60;;
63621;SDS011;49770;47.544;19.074;2022-07-29T12:16:43;4.12;;;3.80;;
63621;SDS011;49770;47.544;19.074;2022-07-29T12:19:45;6.15;;;3.87;;
63621;SDS011;49770;47.544;19.074;2022-07-29T12:30:05;5.87;;;3.78;;
63621;SDS011;49770;47.544;19.074;2022-07-29T12:36:55;4.57;;;3.83;;
63621;SDS011;49770;47.544;19.074;2022-07-29T12:39:58;6.35;;;4.18;;
63621;SDS011;49770;47.544;19.074;2022-07-29T12:43:08;7.30;;;3.80;;
63621;SDS011;49770;47.544;19.074;2022-07-29T12:50:06;7.70;;;3.90;;
63621;SDS011;49770;47.544;19.074;2022-07-29T12:53:14;9.20;;;4.15;;
63621;SDS011;49770;47.544;19.074;2022-07-29T12:56:18;4.28;;;3.90;;
63621;SDS011;49770;47.544;19.074;2022-07-29T12:59:41;8.55;;;4.57;;
63621;SDS011;49770;47.544;19.074;2022-07-29T13:02:44;5.55;;;3.87;;
63621;SDS011;49770;47.544;19.074;2022-07-29T13:05:58;7.28;;;3.75;;
63621;SDS011;49770;47.544;19.074;2022-07-29T13:09:08;9.25;;;4.07;;
63621;SDS011;49770;47.544;19.074;2022-07-29T13:12:12;7.15;;;4.07;;
63621;SDS011;49770;47.544;19.074;2022-07-29T13:15:16;4.22;;;3.83;;
63621;SDS011;49770;47.544;19.074;2022-07-29T13:18:26;4.22;;;3.92;;
63621;SDS011;49770;47.544;19.074;2022-07-29T13:21:30;4.35;;;3.95;;
63621;SDS011;49770;47.544;19.074;2022-07-29T13:27:52;3.90;;;3.60;;
63621;SDS011;49770;47.544;19.074;2022-07-29T13:30:56;4.03;;;3.60;;
63621;SDS011;49770;47.544;19.074;2022-07-29T13:33:59;5.93;;;4.10;;
63621;SDS011;49770;47.544;19.074;2022-07-29T13:37:02;3.78;;;3.53;;
63621;SDS011;49770;47.544;19.074;2022-07-29T13:40:07;4.60;;;3.80;;
63621;SDS011;49770;47.544;19.074;2022-07-29T13:43:10;4.62;;;3.87;;
63621;SDS011;49770;47.544;19.074;2022-07-29T13:46:14;9.20;;;4.00;;
63621;SDS011;49770;47.544;19.074;2022-07-29T13:49:17;7.78;;;4.03;;
63621;SDS011;49770;47.544;19.074;2022-07-29T13:52:20;5.35;;;4.20;;
63621;SDS011;49770;47.544;19.074;2022-07-29T13:55:23;4.12;;;3.75;;
63621;SDS011;49770;47.544;19.074;2022-07-29T13:58:26;4.43;;;3.90;;
63621;SDS011;49770;47.544;19.074;2022-07-29T14:01:29;4.78;;;3.90;;
63621;SDS011;49770;47.544;19.074;2022-07-29T14:04:33;6.05;;;4.10;;
63621;SDS011;49770;47.544;19.074;2022-07-29T14:07:36;4.68;;;4.10;;
63621;SDS011;49770;47.544;19.074;2022-07-29T14:10:41;5.03;;;4.20;;
63621;SDS011;49770;47.544;19.074;2022-07-29T14:13:43;7.05;;;3.90;;
63621;SDS011;49770;47.544;19.074;2022-07-29T14:16:46;4.40;;;3.95;;
63621;SDS011;49770;47.544;19.074;2022-07-29T14:19:59;5.72;;;4.20;;
63621;SDS011;49770;47.544;19.074;2022-07-29T14:23:02;3.97;;;3.60;;
63621;SDS011;49770;47.544;19.074;2022-07-29T14:26:06;6.12;;;4.25;;
63621;SDS011;49770;47.544;19.074;2022-07-29T14:29:14;4.25;;;3.85;;
63621;SDS011;49770;47.544;19.074;2022-07-29T14:32:17;4.82;;;3.87;;
63621;SDS011;49770;47.544;19.074;2022-07-29T14:35:20;4.45;;;4.05;;
63621;SDS011;49770;47.544;19.074;2022-07-29T14:38:22;5.45;;;3.83;;
63621;SDS011;49770;47.544;19.074;2022-07-29T14:41:28;5.53;;;3.60;;
63621;SDS011;49770;47.544;19.074;2022-07-29T14:44:30;7.35;;;4.12;;
63621;SDS011;49770;47.544;19.074;2022-07-29T14:47:33;4.25;;;3.90;;
63621;SDS011;49770;47.544;19.074;2022-07-29T14:50:36;6.87;;;4.07;;
63621;SDS011;49770;47.544;19.074;2022-07-29T14:53:39;5.30;;;4.12;;
63621;SDS011;49770;47.544;19.074;2022-07-29T14:56:42;5.28;;;3.90;;
63621;SDS011;49770;47.544;19.074;2022-07-29T14:59:48;7.30;;;4.03;;
63621;SDS011;49770;47.544;19.074;2022-07-29T15:02:50;6.93;;;4.03;;
63621;SDS011;49770;47.544;19.074;2022-07-29T15:06:04;4.68;;;4.25;;
63621;SDS011;49770;47.544;19.074;2022-07-29T15:09:07;6.07;;;3.90;;
63621;SDS011;49770;47.544;19.074;2022-07-29T15:12:10;4.20;;;3.80;;
63621;SDS011;49770;47.544;19.074;2022-07-29T15:15:13;4.47;;;3.83;;
63621;SDS011;49770;47.544;19.074;2022-07-29T15:18:16;6.03;;;4.40;;
63621;SDS011;49770;47.544;19.074;2022-07-29T15:21:27;4.75;;;4.35;;
